La Porte, Texas
Current Conditions -  °F | °C
As of 2:50 PM on Tuesday 27 Jan 2015 (Local Time) from KEFD Reporting Station
Clear Clear  
Wind Chill: 75°   Ceiling: Unl
Heat Index: 75°   Visibility: 10mi
Dew Point: 43°   Wind: 7mph
Humidity: 31%   Direction: 310°NW
Pressure: 30.12"   Gusts: NA
Location:  29.65°N, 95.02°W
Report Text: KEFD 272050Z 31006KT 10SM CLR 24/06 A3012
Loading
Personal Weather Stations






























Interactive Weather Map New forecast layout! Learn more

10-Day Weather Forecast

Advertisements
Track Severe Weather on mobile